sensor_id;sensor_type;location;lat;lon;timestamp;P1;durP1;ratioP1;P2;durP2;ratioP2
9773;SDS011;4926;42.670;23.316;2022-12-24T00:02:15;41.95;;;25.42;;
9773;SDS011;4926;42.670;23.316;2022-12-24T00:04:41;39.42;;;23.77;;
9773;SDS011;4926;42.670;23.316;2022-12-24T00:07:11;39.50;;;24.33;;
9773;SDS011;4926;42.670;23.316;2022-12-24T00:09:40;34.60;;;21.83;;
9773;SDS011;4926;42.670;23.316;2022-12-24T00:12:06;35.47;;;22.85;;
9773;SDS011;4926;42.670;23.316;2022-12-24T00:14:36;34.78;;;21.98;;
9773;SDS011;4926;42.670;23.316;2022-12-24T00:17:02;33.15;;;21.35;;
9773;SDS011;4926;42.670;23.316;2022-12-24T00:19:31;35.28;;;23.33;;
9773;SDS011;4926;42.670;23.316;2022-12-24T00:22:00;35.05;;;21.55;;
9773;SDS011;4926;42.670;23.316;2022-12-24T00:24:27;37.75;;;22.50;;
9773;SDS011;4926;42.670;23.316;2022-12-24T00:26:54;34.83;;;21.95;;
9773;SDS011;4926;42.670;23.316;2022-12-24T00:29:20;31.77;;;20.40;;
9773;SDS011;4926;42.670;23.316;2022-12-24T00:31:47;35.90;;;21.88;;
9773;SDS011;4926;42.670;23.316;2022-12-24T00:34:17;34.85;;;21.45;;
9773;SDS011;4926;42.670;23.316;2022-12-24T00:36:45;30.23;;;19.73;;
9773;SDS011;4926;42.670;23.316;2022-12-24T00:39:12;34.15;;;21.27;;
9773;SDS011;4926;42.670;23.316;2022-12-24T00:41:38;29.98;;;20.92;;
9773;SDS011;4926;42.670;23.316;2022-12-24T00:44:06;30.15;;;18.77;;
9773;SDS011;4926;42.670;23.316;2022-12-24T00:46:35;32.35;;;20.13;;
9773;SDS011;4926;42.670;23.316;2022-12-24T00:49:03;30.10;;;19.45;;
9773;SDS011;4926;42.670;23.316;2022-12-24T00:51:31;31.92;;;18.80;;
9773;SDS011;4926;42.670;23.316;2022-12-24T00:54:02;32.55;;;19.63;;
9773;SDS011;4926;42.670;23.316;2022-12-24T00:56:30;31.48;;;20.08;;
9773;SDS011;4926;42.670;23.316;2022-12-24T00:58:57;30.83;;;20.88;;
9773;SDS011;4926;42.670;23.316;2022-12-24T01:01:26;31.73;;;20.35;;
9773;SDS011;4926;42.670;23.316;2022-12-24T01:03:53;29.50;;;19.63;;
9773;SDS011;4926;42.670;23.316;2022-12-24T01:06:41;29.77;;;19.45;;
9773;SDS011;4926;42.670;23.316;2022-12-24T01:09:11;30.23;;;19.75;;
9773;SDS011;4926;42.670;23.316;2022-12-24T01:11:38;28.10;;;18.33;;
9773;SDS011;4926;42.670;23.316;2022-12-24T01:14:04;27.13;;;18.75;;
9773;SDS011;4926;42.670;23.316;2022-12-24T01:16:31;28.58;;;18.58;;
9773;SDS011;4926;42.670;23.316;2022-12-24T01:18:58;27.85;;;18.23;;
9773;SDS011;4926;42.670;23.316;2022-12-24T01:21:25;31.52;;;21.10;;
9773;SDS011;4926;42.670;23.316;2022-12-24T01:23:51;28.65;;;20.08;;
9773;SDS011;4926;42.670;23.316;2022-12-24T01:26:19;31.33;;;21.05;;
9773;SDS011;4926;42.670;23.316;2022-12-24T01:28:46;33.05;;;21.98;;
9773;SDS011;4926;42.670;23.316;2022-12-24T01:31:16;32.17;;;20.25;;
9773;SDS011;4926;42.670;23.316;2022-12-24T01:36:25;37.10;;;23.25;;
9773;SDS011;4926;42.670;23.316;2022-12-24T01:38:57;34.15;;;23.38;;
9773;SDS011;4926;42.670;23.316;2022-12-24T01:41:28;34.97;;;23.55;;
9773;SDS011;4926;42.670;23.316;2022-12-24T01:44:15;41.85;;;26.08;;
9773;SDS011;4926;42.670;23.316;2022-12-24T01:46:43;41.03;;;26.17;;
9773;SDS011;4926;42.670;23.316;2022-12-24T01:49:16;45.47;;;29.25;;
9773;SDS011;4926;42.670;23.316;2022-12-24T01:51:47;45.70;;;29.80;;
9773;SDS011;4926;42.670;23.316;2022-12-24T01:54:19;41.50;;;28.10;;
9773;SDS011;4926;42.670;23.316;2022-12-24T01:56:51;43.45;;;27.90;;
9773;SDS011;4926;42.670;23.316;2022-12-24T01:59:21;44.75;;;29.70;;
9773;SDS011;4926;42.670;23.316;2022-12-24T02:01:53;43.35;;;28.20;;
9773;SDS011;4926;42.670;23.316;2022-12-24T02:04:23;43.08;;;25.65;;
9773;SDS011;4926;42.670;23.316;2022-12-24T02:06:57;37.00;;;23.63;;
9773;SDS011;4926;42.670;23.316;2022-12-24T02:09:24;31.90;;;23.15;;
9773;SDS011;4926;42.670;23.316;2022-12-24T02:11:56;37.00;;;22.70;;
9773;SDS011;4926;42.670;23.316;2022-12-24T02:14:23;33.40;;;20.77;;
9773;SDS011;4926;42.670;23.316;2022-12-24T02:16:52;35.67;;;22.92;;
9773;SDS011;4926;42.670;23.316;2022-12-24T02:22:45;37.03;;;23.63;;
9773;SDS011;4926;42.670;23.316;2022-12-24T02:25:30;39.50;;;23.70;;
9773;SDS011;4926;42.670;23.316;2022-12-24T02:28:10;38.08;;;24.63;;
9773;SDS011;4926;42.670;23.316;2022-12-24T02:30:53;38.00;;;24.02;;
9773;SDS011;4926;42.670;23.316;2022-12-24T02:33:25;37.92;;;24.10;;
9773;SDS011;4926;42.670;23.316;2022-12-24T02:35:56;43.45;;;25.42;;
9773;SDS011;4926;42.670;23.316;2022-12-24T02:38:29;34.53;;;21.88;;
9773;SDS011;4926;42.670;23.316;2022-12-24T02:41:02;35.28;;;22.48;;
9773;SDS011;4926;42.670;23.316;2022-12-24T02:43:33;35.83;;;23.20;;
9773;SDS011;4926;42.670;23.316;2022-12-24T02:46:05;34.78;;;22.05;;
9773;SDS011;4926;42.670;23.316;2022-12-24T02:48:36;32.70;;;20.52;;
9773;SDS011;4926;42.670;23.316;2022-12-24T02:51:12;29.60;;;19.33;;
9773;SDS011;4926;42.670;23.316;2022-12-24T02:53:42;30.20;;;19.57;;
9773;SDS011;4926;42.670;23.316;2022-12-24T02:56:16;31.92;;;20.48;;
9773;SDS011;4926;42.670;23.316;2022-12-24T02:58:58;32.03;;;19.83;;
9773;SDS011;4926;42.670;23.316;2022-12-24T03:01:46;28.77;;;19.50;;
9773;SDS011;4926;42.670;23.316;2022-12-24T03:04:21;27.25;;;18.70;;
9773;SDS011;4926;42.670;23.316;2022-12-24T03:07:05;34.03;;;19.83;;
9773;SDS011;4926;42.670;23.316;2022-12-24T03:09:38;30.25;;;19.25;;
9773;SDS011;4926;42.670;23.316;2022-12-24T03:12:24;28.60;;;18.95;;
9773;SDS011;4926;42.670;23.316;2022-12-24T03:14:55;29.35;;;18.90;;
9773;SDS011;4926;42.670;23.316;2022-12-24T03:17:24;34.00;;;22.08;;
9773;SDS011;4926;42.670;23.316;2022-12-24T03:19:52;37.35;;;24.15;;
9773;SDS011;4926;42.670;23.316;2022-12-24T03:22:20;38.60;;;25.77;;
9773;SDS011;4926;42.670;23.316;2022-12-24T03:24:48;37.75;;;26.10;;
9773;SDS011;4926;42.670;23.316;2022-12-24T03:27:15;39.63;;;25.58;;
9773;SDS011;4926;42.670;23.316;2022-12-24T03:29:43;42.70;;;26.15;;
9773;SDS011;4926;42.670;23.316;2022-12-24T03:32:13;35.08;;;22.50;;
9773;SDS011;4926;42.670;23.316;2022-12-24T03:34:41;34.60;;;22.35;;
9773;SDS011;4926;42.670;23.316;2022-12-24T03:37:07;38.00;;;24.73;;
9773;SDS011;4926;42.670;23.316;2022-12-24T03:39:34;38.10;;;24.05;;
9773;SDS011;4926;42.670;23.316;2022-12-24T03:42:03;38.90;;;25.05;;
9773;SDS011;4926;42.670;23.316;2022-12-24T03:44:30;37.10;;;24.60;;
9773;SDS011;4926;42.670;23.316;2022-12-24T03:46:56;38.83;;;23.77;;
9773;SDS011;4926;42.670;23.316;2022-12-24T03:49:23;30.17;;;20.63;;
9773;SDS011;4926;42.670;23.316;2022-12-24T03:51:51;37.05;;;21.17;;
9773;SDS011;4926;42.670;23.316;2022-12-24T03:54:18;33.28;;;22.10;;
9773;SDS011;4926;42.670;23.316;2022-12-24T03:56:46;33.28;;;21.75;;
9773;SDS011;4926;42.670;23.316;2022-12-24T03:59:12;36.00;;;22.58;;
9773;SDS011;4926;42.670;23.316;2022-12-24T04:01:39;33.42;;;22.63;;
9773;SDS011;4926;42.670;23.316;2022-12-24T04:04:06;42.63;;;25.70;;
9773;SDS011;4926;42.670;23.316;2022-12-24T04:06:33;35.20;;;23.77;;
9773;SDS011;4926;42.670;23.316;2022-12-24T04:09:01;43.80;;;25.95;;
9773;SDS011;4926;42.670;23.316;2022-12-24T04:11:29;37.67;;;24.13;;
9773;SDS011;4926;42.670;23.316;2022-12-24T04:13:56;39.35;;;25.83;;
9773;SDS011;4926;42.670;23.316;2022-12-24T04:16:26;51.13;;;31.98;;
9773;SDS011;4926;42.670;23.316;2022-12-24T04:18:52;49.72;;;32.10;;
9773;SDS011;4926;42.670;23.316;2022-12-24T04:21:19;54.05;;;35.35;;
9773;SDS011;4926;42.670;23.316;2022-12-24T04:23:49;61.53;;;40.35;;
9773;SDS011;4926;42.670;23.316;2022-12-24T04:26:17;63.30;;;41.30;;
9773;SDS011;4926;42.670;23.316;2022-12-24T04:28:44;54.85;;;33.65;;
9773;SDS011;4926;42.670;23.316;2022-12-24T04:31:11;47.88;;;31.92;;
9773;SDS011;4926;42.670;23.316;2022-12-24T04:33:41;45.90;;;28.25;;
9773;SDS011;4926;42.670;23.316;2022-12-24T04:36:09;45.47;;;28.98;;
9773;SDS011;4926;42.670;23.316;2022-12-24T04:38:39;53.45;;;32.70;;
9773;SDS011;4926;42.670;23.316;2022-12-24T04:41:06;48.70;;;29.92;;
9773;SDS011;4926;42.670;23.316;2022-12-24T04:43:39;45.25;;;28.70;;
9773;SDS011;4926;42.670;23.316;2022-12-24T04:46:06;39.58;;;25.10;;
9773;SDS011;4926;42.670;23.316;2022-12-24T04:48:34;30.40;;;21.42;;
9773;SDS011;4926;42.670;23.316;2022-12-24T04:51:02;35.75;;;21.98;;
9773;SDS011;4926;42.670;23.316;2022-12-24T04:53:30;35.15;;;20.88;;
9773;SDS011;4926;42.670;23.316;2022-12-24T04:55:57;37.90;;;21.48;;
9773;SDS011;4926;42.670;23.316;2022-12-24T04:58:24;33.65;;;20.48;;
9773;SDS011;4926;42.670;23.316;2022-12-24T05:00:52;31.65;;;19.85;;
9773;SDS011;4926;42.670;23.316;2022-12-24T05:03:20;32.08;;;19.75;;
9773;SDS011;4926;42.670;23.316;2022-12-24T05:05:52;30.63;;;20.00;;
9773;SDS011;4926;42.670;23.316;2022-12-24T05:08:18;31.80;;;20.15;;
9773;SDS011;4926;42.670;23.316;2022-12-24T05:10:55;33.13;;;20.58;;
9773;SDS011;4926;42.670;23.316;2022-12-24T05:13:22;30.38;;;20.05;;
9773;SDS011;4926;42.670;23.316;2022-12-24T05:15:51;34.72;;;19.75;;
9773;SDS011;4926;42.670;23.316;2022-12-24T05:18:19;30.85;;;18.55;;
9773;SDS011;4926;42.670;23.316;2022-12-24T05:20:49;29.80;;;18.33;;
9773;SDS011;4926;42.670;23.316;2022-12-24T05:23:16;35.80;;;19.80;;
9773;SDS011;4926;42.670;23.316;2022-12-24T05:26:02;28.23;;;18.90;;
9773;SDS011;4926;42.670;23.316;2022-12-24T05:28:47;27.67;;;18.05;;
9773;SDS011;4926;42.670;23.316;2022-12-24T05:31:17;28.70;;;19.40;;
9773;SDS011;4926;42.670;23.316;2022-12-24T05:33:47;30.10;;;18.35;;
9773;SDS011;4926;42.670;23.316;2022-12-24T05:36:20;30.63;;;18.40;;
9773;SDS011;4926;42.670;23.316;2022-12-24T05:38:47;29.10;;;18.40;;
9773;SDS011;4926;42.670;23.316;2022-12-24T05:41:14;29.08;;;18.90;;
9773;SDS011;4926;42.670;23.316;2022-12-24T05:43:41;28.42;;;17.70;;
9773;SDS011;4926;42.670;23.316;2022-12-24T05:46:09;29.75;;;19.35;;
9773;SDS011;4926;42.670;23.316;2022-12-24T05:48:40;26.65;;;18.33;;
9773;SDS011;4926;42.670;23.316;2022-12-24T05:51:07;27.50;;;18.10;;
9773;SDS011;4926;42.670;23.316;2022-12-24T05:53:35;27.50;;;18.58;;
9773;SDS011;4926;42.670;23.316;2022-12-24T05:56:03;27.58;;;17.35;;
9773;SDS011;4926;42.670;23.316;2022-12-24T05:58:31;25.80;;;17.73;;
9773;SDS011;4926;42.670;23.316;2022-12-24T06:00:59;29.55;;;17.80;;
9773;SDS011;4926;42.670;23.316;2022-12-24T06:03:28;28.95;;;19.13;;
9773;SDS011;4926;42.670;23.316;2022-12-24T06:06:00;34.05;;;21.70;;
9773;SDS011;4926;42.670;23.316;2022-12-24T06:08:29;36.80;;;23.92;;
9773;SDS011;4926;42.670;23.316;2022-12-24T06:10:58;39.22;;;25.92;;
9773;SDS011;4926;42.670;23.316;2022-12-24T06:13:26;44.28;;;28.85;;
9773;SDS011;4926;42.670;23.316;2022-12-24T06:15:56;47.70;;;28.75;;
9773;SDS011;4926;42.670;23.316;2022-12-24T06:18:23;45.35;;;28.55;;
9773;SDS011;4926;42.670;23.316;2022-12-24T06:20:50;45.40;;;29.23;;
9773;SDS011;4926;42.670;23.316;2022-12-24T06:23:22;43.55;;;28.48;;
9773;SDS011;4926;42.670;23.316;2022-12-24T06:25:54;47.05;;;29.90;;
9773;SDS011;4926;42.670;23.316;2022-12-24T06:28:21;46.67;;;31.83;;
9773;SDS011;4926;42.670;23.316;2022-12-24T06:30:48;47.53;;;29.13;;
9773;SDS011;4926;42.670;23.316;2022-12-24T06:33:17;42.30;;;27.23;;
9773;SDS011;4926;42.670;23.316;2022-12-24T06:35:44;46.10;;;28.08;;
9773;SDS011;4926;42.670;23.316;2022-12-24T06:38:11;43.67;;;27.85;;
9773;SDS011;4926;42.670;23.316;2022-12-24T06:40:43;43.00;;;27.65;;
9773;SDS011;4926;42.670;23.316;2022-12-24T06:43:11;43.60;;;27.52;;
9773;SDS011;4926;42.670;23.316;2022-12-24T06:45:38;44.17;;;28.77;;
9773;SDS011;4926;42.670;23.316;2022-12-24T06:48:10;47.53;;;30.38;;
9773;SDS011;4926;42.670;23.316;2022-12-24T06:50:37;45.38;;;30.42;;
9773;SDS011;4926;42.670;23.316;2022-12-24T06:53:03;52.05;;;30.38;;
9773;SDS011;4926;42.670;23.316;2022-12-24T06:55:32;36.58;;;25.92;;
9773;SDS011;4926;42.670;23.316;2022-12-24T06:58:03;43.80;;;27.52;;
9773;SDS011;4926;42.670;23.316;2022-12-24T07:00:29;45.67;;;31.00;;
9773;SDS011;4926;42.670;23.316;2022-12-24T07:02:59;45.97;;;29.20;;
9773;SDS011;4926;42.670;23.316;2022-12-24T07:05:35;43.53;;;30.27;;
9773;SDS011;4926;42.670;23.316;2022-12-24T07:08:02;49.35;;;31.88;;
9773;SDS011;4926;42.670;23.316;2022-12-24T07:10:28;44.20;;;29.50;;
9773;SDS011;4926;42.670;23.316;2022-12-24T07:12:58;46.22;;;30.42;;
9773;SDS011;4926;42.670;23.316;2022-12-24T07:15:27;46.75;;;29.02;;
9773;SDS011;4926;42.670;23.316;2022-12-24T07:17:54;44.60;;;27.30;;
9773;SDS011;4926;42.670;23.316;2022-12-24T07:20:20;31.02;;;21.20;;
9773;SDS011;4926;42.670;23.316;2022-12-24T07:22:47;29.88;;;20.15;;
9773;SDS011;4926;42.670;23.316;2022-12-24T07:25:14;26.08;;;18.70;;
9773;SDS011;4926;42.670;23.316;2022-12-24T07:27:43;27.67;;;18.67;;
9773;SDS011;4926;42.670;23.316;2022-12-24T07:30:13;30.17;;;20.08;;
9773;SDS011;4926;42.670;23.316;2022-12-24T07:32:42;26.42;;;18.45;;
9773;SDS011;4926;42.670;23.316;2022-12-24T07:35:09;25.63;;;18.00;;
9773;SDS011;4926;42.670;23.316;2022-12-24T07:37:36;28.15;;;17.27;;
9773;SDS011;4926;42.670;23.316;2022-12-24T07:40:03;24.60;;;16.30;;
9773;SDS011;4926;42.670;23.316;2022-12-24T07:42:33;22.83;;;16.27;;
9773;SDS011;4926;42.670;23.316;2022-12-24T07:45:00;20.38;;;14.93;;
9773;SDS011;4926;42.670;23.316;2022-12-24T07:47:27;23.70;;;16.15;;
9773;SDS011;4926;42.670;23.316;2022-12-24T07:49:55;23.83;;;16.52;;
9773;SDS011;4926;42.670;23.316;2022-12-24T07:52:22;26.08;;;18.60;;
9773;SDS011;4926;42.670;23.316;2022-12-24T07:54:48;39.20;;;25.90;;
9773;SDS011;4926;42.670;23.316;2022-12-24T07:57:15;48.08;;;31.25;;
9773;SDS011;4926;42.670;23.316;2022-12-24T07:59:43;51.40;;;33.20;;
9773;SDS011;4926;42.670;23.316;2022-12-24T08:02:15;63.28;;;40.63;;
9773;SDS011;4926;42.670;23.316;2022-12-24T08:04:42;64.68;;;38.95;;
9773;SDS011;4926;42.670;23.316;2022-12-24T08:07:10;63.47;;;40.15;;
9773;SDS011;4926;42.670;23.316;2022-12-24T08:09:37;61.28;;;39.58;;
9773;SDS011;4926;42.670;23.316;2022-12-24T08:12:04;55.35;;;35.95;;
9773;SDS011;4926;42.670;23.316;2022-12-24T08:14:31;52.50;;;35.92;;
9773;SDS011;4926;42.670;23.316;2022-12-24T08:16:57;54.10;;;35.95;;
9773;SDS011;4926;42.670;23.316;2022-12-24T08:19:24;51.22;;;36.20;;
9773;SDS011;4926;42.670;23.316;2022-12-24T08:21:51;50.55;;;33.17;;
9773;SDS011;4926;42.670;23.316;2022-12-24T08:24:19;40.97;;;29.42;;
9773;SDS011;4926;42.670;23.316;2022-12-24T08:26:45;45.15;;;29.27;;
9773;SDS011;4926;42.670;23.316;2022-12-24T08:29:12;45.75;;;28.15;;
9773;SDS011;4926;42.670;23.316;2022-12-24T08:31:40;43.20;;;28.58;;
9773;SDS011;4926;42.670;23.316;2022-12-24T08:34:07;42.10;;;30.00;;
9773;SDS011;4926;42.670;23.316;2022-12-24T08:36:40;51.67;;;33.80;;
9773;SDS011;4926;42.670;23.316;2022-12-24T08:39:06;48.78;;;32.40;;
9773;SDS011;4926;42.670;23.316;2022-12-24T08:41:34;32.00;;;21.10;;
9773;SDS011;4926;42.670;23.316;2022-12-24T08:44:01;24.98;;;16.05;;
9773;SDS011;4926;42.670;23.316;2022-12-24T08:46:28;19.90;;;14.88;;
9773;SDS011;4926;42.670;23.316;2022-12-24T08:48:55;25.98;;;17.10;;
9773;SDS011;4926;42.670;23.316;2022-12-24T08:51:24;25.88;;;17.23;;
9773;SDS011;4926;42.670;23.316;2022-12-24T08:53:50;21.83;;;16.38;;
9773;SDS011;4926;42.670;23.316;2022-12-24T08:56:17;22.92;;;15.27;;
9773;SDS011;4926;42.670;23.316;2022-12-24T08:58:45;39.25;;;25.17;;
9773;SDS011;4926;42.670;23.316;2022-12-24T09:01:19;45.35;;;29.38;;
9773;SDS011;4926;42.670;23.316;2022-12-24T09:03:46;44.97;;;27.77;;
9773;SDS011;4926;42.670;23.316;2022-12-24T09:06:13;45.58;;;30.25;;
9773;SDS011;4926;42.670;23.316;2022-12-24T09:08:40;44.58;;;29.55;;
9773;SDS011;4926;42.670;23.316;2022-12-24T09:11:11;41.35;;;29.63;;
9773;SDS011;4926;42.670;23.316;2022-12-24T09:13:40;43.28;;;30.05;;
9773;SDS011;4926;42.670;23.316;2022-12-24T09:16:10;34.20;;;23.73;;
9773;SDS011;4926;42.670;23.316;2022-12-24T09:18:40;35.28;;;21.23;;
9773;SDS011;4926;42.670;23.316;2022-12-24T09:21:08;32.47;;;22.35;;
9773;SDS011;4926;42.670;23.316;2022-12-24T09:23:38;30.50;;;22.00;;
9773;SDS011;4926;42.670;23.316;2022-12-24T09:26:06;31.02;;;21.92;;
9773;SDS011;4926;42.670;23.316;2022-12-24T09:28:34;41.88;;;25.42;;
9773;SDS011;4926;42.670;23.316;2022-12-24T09:31:01;39.45;;;26.15;;
9773;SDS011;4926;42.670;23.316;2022-12-24T09:33:31;42.72;;;27.90;;
9773;SDS011;4926;42.670;23.316;2022-12-24T09:35:59;39.17;;;27.45;;
9773;SDS011;4926;42.670;23.316;2022-12-24T09:38:26;37.25;;;25.23;;
9773;SDS011;4926;42.670;23.316;2022-12-24T09:41:00;37.28;;;26.10;;
9773;SDS011;4926;42.670;23.316;2022-12-24T09:43:28;41.17;;;26.38;;
9773;SDS011;4926;42.670;23.316;2022-12-24T09:46:02;49.50;;;29.10;;
9773;SDS011;4926;42.670;23.316;2022-12-24T09:48:36;59.20;;;36.35;;
9773;SDS011;4926;42.670;23.316;2022-12-24T09:51:07;59.60;;;39.38;;
9773;SDS011;4926;42.670;23.316;2022-12-24T09:53:37;70.32;;;45.13;;
9773;SDS011;4926;42.670;23.316;2022-12-24T09:56:13;71.93;;;46.20;;
9773;SDS011;4926;42.670;23.316;2022-12-24T09:58:43;95.72;;;57.30;;
9773;SDS011;4926;42.670;23.316;2022-12-24T10:01:13;97.25;;;60.67;;
9773;SDS011;4926;42.670;23.316;2022-12-24T10:03:43;100.35;;;63.25;;
9773;SDS011;4926;42.670;23.316;2022-12-24T10:06:12;104.22;;;63.70;;
9773;SDS011;4926;42.670;23.316;2022-12-24T10:08:44;94.70;;;57.70;;
9773;SDS011;4926;42.670;23.316;2022-12-24T10:11:30;89.90;;;58.42;;
9773;SDS011;4926;42.670;23.316;2022-12-24T10:14:10;92.18;;;59.72;;
9773;SDS011;4926;42.670;23.316;2022-12-24T10:16:50;86.50;;;56.65;;
9773;SDS011;4926;42.670;23.316;2022-12-24T10:19:32;89.53;;;56.72;;
9773;SDS011;4926;42.670;23.316;2022-12-24T10:22:07;81.68;;;53.75;;
9773;SDS011;4926;42.670;23.316;2022-12-24T10:24:45;83.40;;;51.63;;
9773;SDS011;4926;42.670;23.316;2022-12-24T10:27:18;84.53;;;51.97;;
9773;SDS011;4926;42.670;23.316;2022-12-24T10:29:51;78.10;;;50.17;;
9773;SDS011;4926;42.670;23.316;2022-12-24T10:32:30;83.32;;;50.30;;
9773;SDS011;4926;42.670;23.316;2022-12-24T10:35:02;76.35;;;49.47;;
9773;SDS011;4926;42.670;23.316;2022-12-24T10:37:43;80.68;;;49.90;;
9773;SDS011;4926;42.670;23.316;2022-12-24T10:40:24;75.78;;;48.08;;
9773;SDS011;4926;42.670;23.316;2022-12-24T10:42:55;71.50;;;46.72;;
9773;SDS011;4926;42.670;23.316;2022-12-24T10:45:41;83.47;;;48.80;;
9773;SDS011;4926;42.670;23.316;2022-12-24T10:48:15;72.15;;;46.35;;
9773;SDS011;4926;42.670;23.316;2022-12-24T10:50:51;71.47;;;41.67;;
9773;SDS011;4926;42.670;23.316;2022-12-24T10:53:23;60.13;;;41.00;;
9773;SDS011;4926;42.670;23.316;2022-12-24T10:56:02;61.63;;;42.03;;
9773;SDS011;4926;42.670;23.316;2022-12-24T10:58:31;66.28;;;42.65;;
9773;SDS011;4926;42.670;23.316;2022-12-24T11:00:59;67.30;;;43.85;;
9773;SDS011;4926;42.670;23.316;2022-12-24T11:03:30;70.75;;;44.00;;
9773;SDS011;4926;42.670;23.316;2022-12-24T11:06:10;74.93;;;45.38;;
9773;SDS011;4926;42.670;23.316;2022-12-24T11:08:39;74.53;;;44.00;;
9773;SDS011;4926;42.670;23.316;2022-12-24T11:11:10;70.22;;;42.20;;
9773;SDS011;4926;42.670;23.316;2022-12-24T11:13:42;67.95;;;43.22;;
9773;SDS011;4926;42.670;23.316;2022-12-24T11:16:24;61.42;;;41.67;;
9773;SDS011;4926;42.670;23.316;2022-12-24T11:18:55;67.10;;;43.10;;
9773;SDS011;4926;42.670;23.316;2022-12-24T11:21:25;61.72;;;41.08;;
9773;SDS011;4926;42.670;23.316;2022-12-24T11:23:55;64.95;;;42.47;;
9773;SDS011;4926;42.670;23.316;2022-12-24T11:26:24;58.25;;;40.95;;
9773;SDS011;4926;42.670;23.316;2022-12-24T11:29:05;62.67;;;42.13;;
9773;SDS011;4926;42.670;23.316;2022-12-24T11:31:39;67.25;;;44.10;;
9773;SDS011;4926;42.670;23.316;2022-12-24T11:34:17;70.38;;;43.78;;
9773;SDS011;4926;42.670;23.316;2022-12-24T11:36:53;69.68;;;44.92;;
9773;SDS011;4926;42.670;23.316;2022-12-24T11:39:22;67.85;;;43.92;;
9773;SDS011;4926;42.670;23.316;2022-12-24T11:41:51;61.95;;;40.30;;
9773;SDS011;4926;42.670;23.316;2022-12-24T11:44:23;61.35;;;39.38;;
9773;SDS011;4926;42.670;23.316;2022-12-24T11:46:51;54.75;;;37.05;;
9773;SDS011;4926;42.670;23.316;2022-12-24T11:49:22;40.78;;;27.05;;
9773;SDS011;4926;42.670;23.316;2022-12-24T11:54:58;45.20;;;28.23;;
9773;SDS011;4926;42.670;23.316;2022-12-24T11:57:36;42.83;;;28.23;;
9773;SDS011;4926;42.670;23.316;2022-12-24T12:00:09;41.88;;;29.77;;
9773;SDS011;4926;42.670;23.316;2022-12-24T12:02:37;48.03;;;31.33;;
9773;SDS011;4926;42.670;23.316;2022-12-24T12:05:07;42.70;;;29.45;;
9773;SDS011;4926;42.670;23.316;2022-12-24T12:07:39;44.38;;;30.40;;
9773;SDS011;4926;42.670;23.316;2022-12-24T12:10:14;48.78;;;29.40;;
9773;SDS011;4926;42.670;23.316;2022-12-24T12:12:44;41.70;;;29.75;;
9773;SDS011;4926;42.670;23.316;2022-12-24T12:15:17;47.92;;;30.80;;
9773;SDS011;4926;42.670;23.316;2022-12-24T12:17:48;43.47;;;28.02;;
9773;SDS011;4926;42.670;23.316;2022-12-24T12:20:18;48.25;;;30.92;;
9773;SDS011;4926;42.670;23.316;2022-12-24T12:22:57;51.58;;;32.83;;
9773;SDS011;4926;42.670;23.316;2022-12-24T12:25:29;46.10;;;34.50;;
9773;SDS011;4926;42.670;23.316;2022-12-24T12:28:02;49.70;;;35.45;;
9773;SDS011;4926;42.670;23.316;2022-12-24T12:30:41;52.42;;;35.00;;
9773;SDS011;4926;42.670;23.316;2022-12-24T12:33:11;51.33;;;34.80;;
9773;SDS011;4926;42.670;23.316;2022-12-24T12:35:45;46.78;;;34.55;;
9773;SDS011;4926;42.670;23.316;2022-12-24T12:38:16;53.42;;;36.78;;
9773;SDS011;4926;42.670;23.316;2022-12-24T12:40:56;58.05;;;37.10;;
9773;SDS011;4926;42.670;23.316;2022-12-24T12:43:35;54.38;;;37.38;;
9773;SDS011;4926;42.670;23.316;2022-12-24T12:46:23;56.38;;;34.33;;
9773;SDS011;4926;42.670;23.316;2022-12-24T12:49:09;51.10;;;35.47;;
9773;SDS011;4926;42.670;23.316;2022-12-24T12:51:52;62.83;;;38.85;;
9773;SDS011;4926;42.670;23.316;2022-12-24T12:54:34;57.38;;;38.35;;
9773;SDS011;4926;42.670;23.316;2022-12-24T12:57:21;51.10;;;37.20;;
9773;SDS011;4926;42.670;23.316;2022-12-24T12:59:53;56.35;;;37.72;;
9773;SDS011;4926;42.670;23.316;2022-12-24T13:05:39;58.22;;;39.53;;
9773;SDS011;4926;42.670;23.316;2022-12-24T13:08:25;55.78;;;37.20;;
9773;SDS011;4926;42.670;23.316;2022-12-24T13:11:13;53.80;;;36.83;;
9773;SDS011;4926;42.670;23.316;2022-12-24T13:13:58;58.90;;;38.45;;
9773;SDS011;4926;42.670;23.316;2022-12-24T13:16:43;58.20;;;38.15;;
9773;SDS011;4926;42.670;23.316;2022-12-24T13:19:37;64.47;;;41.25;;
9773;SDS011;4926;42.670;23.316;2022-12-24T13:22:15;65.18;;;41.50;;
9773;SDS011;4926;42.670;23.316;2022-12-24T13:24:46;62.95;;;42.63;;
9773;SDS011;4926;42.670;23.316;2022-12-24T13:27:17;67.38;;;44.28;;
9773;SDS011;4926;42.670;23.316;2022-12-24T13:29:50;68.32;;;46.47;;
9773;SDS011;4926;42.670;23.316;2022-12-24T13:35:27;75.63;;;47.65;;
9773;SDS011;4926;42.670;23.316;2022-12-24T13:44:03;65.45;;;45.38;;
9773;SDS011;4926;42.670;23.316;2022-12-24T13:49:32;65.38;;;44.80;;
9773;SDS011;4926;42.670;23.316;2022-12-24T13:52:05;74.05;;;45.13;;
9773;SDS011;4926;42.670;23.316;2022-12-24T13:54:59;79.57;;;50.78;;
9773;SDS011;4926;42.670;23.316;2022-12-24T13:57:43;89.60;;;51.55;;
9773;SDS011;4926;42.670;23.316;2022-12-24T14:03:24;81.72;;;51.25;;
9773;SDS011;4926;42.670;23.316;2022-12-24T14:05:56;76.60;;;50.25;;
9773;SDS011;4926;42.670;23.316;2022-12-24T14:08:36;80.05;;;50.22;;
9773;SDS011;4926;42.670;23.316;2022-12-24T14:11:08;75.90;;;46.78;;
9773;SDS011;4926;42.670;23.316;2022-12-24T14:16:48;77.45;;;49.90;;
9773;SDS011;4926;42.670;23.316;2022-12-24T14:19:18;77.90;;;50.40;;
9773;SDS011;4926;42.670;23.316;2022-12-24T14:21:50;80.40;;;53.05;;
9773;SDS011;4926;42.670;23.316;2022-12-24T14:24:22;77.97;;;53.50;;
9773;SDS011;4926;42.670;23.316;2022-12-24T14:26:55;80.00;;;54.90;;
9773;SDS011;4926;42.670;23.316;2022-12-24T14:29:26;82.60;;;54.00;;
9773;SDS011;4926;42.670;23.316;2022-12-24T14:31:57;86.85;;;55.97;;
9773;SDS011;4926;42.670;23.316;2022-12-24T14:34:28;86.10;;;54.92;;
9773;SDS011;4926;42.670;23.316;2022-12-24T14:36:55;78.00;;;51.47;;
9773;SDS011;4926;42.670;23.316;2022-12-24T14:39:28;74.80;;;49.30;;
9773;SDS011;4926;42.670;23.316;2022-12-24T14:42:00;64.07;;;43.95;;
9773;SDS011;4926;42.670;23.316;2022-12-24T14:44:35;53.28;;;36.38;;
9773;SDS011;4926;42.670;23.316;2022-12-24T14:47:14;55.33;;;36.40;;
9773;SDS011;4926;42.670;23.316;2022-12-24T14:50:03;45.00;;;32.78;;
9773;SDS011;4926;42.670;23.316;2022-12-24T14:52:52;48.13;;;31.25;;
9773;SDS011;4926;42.670;23.316;2022-12-24T14:55:30;44.25;;;30.25;;
9773;SDS011;4926;42.670;23.316;2022-12-24T15:00:49;43.85;;;25.92;;
9773;SDS011;4926;42.670;23.316;2022-12-24T15:03:21;39.70;;;26.85;;
9773;SDS011;4926;42.670;23.316;2022-12-24T15:05:54;34.15;;;23.25;;
9773;SDS011;4926;42.670;23.316;2022-12-24T15:08:31;29.25;;;20.92;;
9773;SDS011;4926;42.670;23.316;2022-12-24T15:11:02;28.77;;;18.38;;
9773;SDS011;4926;42.670;23.316;2022-12-24T15:13:32;23.33;;;16.77;;
9773;SDS011;4926;42.670;23.316;2022-12-24T15:16:02;21.50;;;15.30;;
9773;SDS011;4926;42.670;23.316;2022-12-24T15:18:32;22.20;;;14.98;;
9773;SDS011;4926;42.670;23.316;2022-12-24T15:21:03;21.95;;;15.48;;
9773;SDS011;4926;42.670;23.316;2022-12-24T15:23:33;25.65;;;16.42;;
9773;SDS011;4926;42.670;23.316;2022-12-24T15:26:05;22.83;;;15.43;;
9773;SDS011;4926;42.670;23.316;2022-12-24T15:28:35;22.50;;;14.10;;
9773;SDS011;4926;42.670;23.316;2022-12-24T15:31:10;14.45;;;10.85;;